Time;durP1;ratioP1;P1;durP2;ratioP2;P2;SDS_P1;SDS_P2;PMS_P1;PMS_P2;Temp;Humidity;BMP_temperature;BMP_pressure;BME280_temperature;BME280_humidity;BME280_pressure;Samples;Min_cycle;Max_cycle;Signal;HPM_P1;HPM_P2
2022/04/24 00:00:38;;;;;;;25.73;20.17;;;;;;;;;;4944836;28;20291;-76
2022/04/24 00:03:07;;;;;;;26.57;21.50;;;;;;;;;;4944070;29;20243;-77
2022/04/24 00:05:34;;;;;;;30.03;21.87;;;;;;;;;;4939875;29;20303;-76
2022/04/24 00:08:02;;;;;;;20.60;16.53;;;;;;;;;;4948122;29;20250;-77
2022/04/24 00:10:29;;;;;;;21.23;15.00;;;;;;;;;;4942243;29;20223;-76
2022/04/24 00:12:56;;;;;;;25.33;18.03;;;;;;;;;;4951938;29;20282;-76
2022/04/24 00:15:23;;;;;;;26.00;19.97;;;;;;;;;;4944677;29;20236;-77
2022/04/24 00:17:51;;;;;;;33.87;25.73;;;;;;;;;;4945170;28;20205;-76
2022/04/24 00:20:19;;;;;;;33.07;26.30;;;;;;;;;;4942886;29;20195;-77
2022/04/24 00:22:46;;;;;;;37.50;27.23;;;;;;;;;;4946200;29;20282;-77
2022/04/24 00:25:14;;;;;;;35.20;27.77;;;;;;;;;;4956207;28;20627;-77
2022/04/24 00:27:41;;;;;;;41.40;30.37;;;;;;;;;;4946154;28;20337;-77
2022/04/24 00:30:08;;;;;;;38.80;29.57;;;;;;;;;;4949256;29;20270;-77
2022/04/24 00:32:36;;;;;;;42.00;31.70;;;;;;;;;;4934716;29;20257;-77
2022/04/24 00:35:03;;;;;;;42.93;31.23;;;;;;;;;;4944140;29;20257;-77
2022/04/24 00:37:31;;;;;;;45.17;32.70;;;;;;;;;;4939929;28;20242;-77
2022/04/24 00:39:58;;;;;;;44.13;33.40;;;;;;;;;;4945120;29;20226;-77
2022/04/24 00:42:26;;;;;;;45.93;33.47;;;;;;;;;;4950576;29;20203;-77
2022/04/24 00:44:53;;;;;;;46.03;33.07;;;;;;;;;;4945195;29;20246;-76
2022/04/24 00:47:22;;;;;;;42.77;32.10;;;;;;;;;;4945107;29;20211;-77
2022/04/24 00:49:49;;;;;;;45.57;32.30;;;;;;;;;;4952305;28;20227;-77
2022/04/24 00:52:18;;;;;;;44.50;31.73;;;;;;;;;;4943817;29;20343;-77
2022/04/24 00:54:46;;;;;;;45.27;31.87;;;;;;;;;;4941468;29;20231;-76
2022/04/24 00:57:14;;;;;;;44.77;32.50;;;;;;;;;;4951934;28;20210;-77
2022/04/24 00:59:41;;;;;;;43.83;33.17;;;;;;;;;;4943850;28;20580;-76
2022/04/24 01:02:10;;;;;;;43.00;33.03;;;;;;;;;;4951459;29;20203;-76
2022/04/24 01:04:38;;;;;;;51.13;33.90;;;;;;;;;;4951147;29;20195;-76
2022/04/24 01:07:05;;;;;;;49.53;32.70;;;;;;;;;;4953729;28;20226;-76
2022/04/24 01:09:33;;;;;;;46.23;33.67;;;;;;;;;;4946929;29;20286;-77
2022/04/24 01:12:02;;;;;;;48.00;33.67;;;;;;;;;;4944872;29;20242;-77
2022/04/24 01:14:30;;;;;;;49.57;35.40;;;;;;;;;;4954607;29;20242;-76
2022/04/24 01:16:58;;;;;;;49.00;36.07;;;;;;;;;;4942631;29;20212;-77
2022/04/24 01:19:26;;;;;;;52.00;37.27;;;;;;;;;;4955888;28;20229;-77
2022/04/24 01:21:55;;;;;;;52.37;36.20;;;;;;;;;;4956662;29;20210;-78
2022/04/24 01:24:23;;;;;;;56.13;38.43;;;;;;;;;;4956266;28;20238;-76
2022/04/24 01:26:50;;;;;;;59.77;40.20;;;;;;;;;;4955775;29;20273;-77
2022/04/24 01:29:18;;;;;;;58.23;39.93;;;;;;;;;;4953219;29;20215;-76
2022/04/24 01:31:45;;;;;;;61.53;40.80;;;;;;;;;;4946797;29;20285;-76
2022/04/24 01:34:13;;;;;;;61.03;40.80;;;;;;;;;;4954201;28;20291;-77
2022/04/24 01:36:40;;;;;;;59.90;39.90;;;;;;;;;;4947527;28;20219;-76
2022/04/24 01:39:10;;;;;;;58.90;40.63;;;;;;;;;;4946453;29;20582;-77
2022/04/24 01:41:37;;;;;;;59.37;41.67;;;;;;;;;;4947423;29;20214;-77
2022/04/24 01:44:05;;;;;;;61.17;42.10;;;;;;;;;;4953526;29;20203;-77
2022/04/24 01:46:32;;;;;;;66.80;43.73;;;;;;;;;;4944848;29;20681;-77
2022/04/24 01:48:59;;;;;;;61.30;41.97;;;;;;;;;;4945472;29;20204;-77
2022/04/24 01:51:26;;;;;;;63.43;42.97;;;;;;;;;;4950586;29;20261;-76
2022/04/24 01:53:54;;;;;;;67.17;42.90;;;;;;;;;;4940178;29;20238;-76
2022/04/24 01:56:22;;;;;;;64.80;42.73;;;;;;;;;;4952147;29;20293;-77
2022/04/24 01:58:49;;;;;;;63.30;44.27;;;;;;;;;;4948544;28;20756;-77
2022/04/24 02:01:17;;;;;;;59.87;42.33;;;;;;;;;;4951704;29;20270;-76
2022/04/24 02:03:44;;;;;;;63.77;42.90;;;;;;;;;;4946441;29;20238;-77
2022/04/24 02:06:12;;;;;;;62.70;42.30;;;;;;;;;;4945812;29;20242;-76
2022/04/24 02:08:39;;;;;;;64.27;43.63;;;;;;;;;;4944490;29;20240;-76
2022/04/24 02:11:08;;;;;;;67.80;42.70;;;;;;;;;;4944777;29;20326;-77
2022/04/24 02:13:37;;;;;;;69.50;44.93;;;;;;;;;;4950568;29;20237;-77
2022/04/24 02:16:05;;;;;;;67.70;45.00;;;;;;;;;;4944938;29;20283;-77
2022/04/24 02:18:33;;;;;;;70.47;44.27;;;;;;;;;;4944831;29;20279;-77
2022/04/24 02:21:00;;;;;;;68.50;44.70;;;;;;;;;;4949513;29;20203;-76
2022/04/24 02:23:27;;;;;;;72.20;44.33;;;;;;;;;;4946186;29;20231;-76
2022/04/24 02:25:55;;;;;;;68.77;45.67;;;;;;;;;;4954553;28;20556;-77
2022/04/24 02:28:22;;;;;;;77.27;45.33;;;;;;;;;;4946927;29;20199;-77
2022/04/24 02:30:51;;;;;;;73.67;44.10;;;;;;;;;;4947064;29;20312;-77
2022/04/24 02:33:18;;;;;;;70.17;44.33;;;;;;;;;;4946781;28;20216;-78
2022/04/24 02:35:45;;;;;;;70.63;44.70;;;;;;;;;;4947507;29;20235;-77
2022/04/24 02:38:13;;;;;;;76.33;45.57;;;;;;;;;;4947671;29;20249;-77
2022/04/24 02:40:40;;;;;;;76.23;45.07;;;;;;;;;;4951967;28;20260;-77
2022/04/24 02:43:08;;;;;;;77.10;45.07;;;;;;;;;;4944282;29;20211;-77
2022/04/24 02:45:35;;;;;;;74.90;45.50;;;;;;;;;;4945243;29;20662;-76
2022/04/24 02:48:04;;;;;;;74.13;45.00;;;;;;;;;;4947460;29;20223;-76
2022/04/24 02:50:31;;;;;;;72.17;44.03;;;;;;;;;;4946017;29;20314;-76
2022/04/24 02:52:59;;;;;;;70.57;44.43;;;;;;;;;;4947850;29;20295;-76
2022/04/24 02:55:27;;;;;;;70.80;44.67;;;;;;;;;;4946717;29;20231;-77
2022/04/24 02:57:55;;;;;;;71.70;45.17;;;;;;;;;;4945742;29;20641;-77
2022/04/24 03:00:24;;;;;;;72.77;45.03;;;;;;;;;;4943719;29;20664;-77
2022/04/24 03:02:52;;;;;;;70.33;44.27;;;;;;;;;;4946004;29;20720;-77
2022/04/24 03:05:21;;;;;;;71.80;45.33;;;;;;;;;;4946541;29;20726;-76
2022/04/24 03:07:49;;;;;;;70.80;43.90;;;;;;;;;;4945081;29;20270;-76
2022/04/24 03:10:17;;;;;;;70.77;44.93;;;;;;;;;;4947227;29;20254;-76
2022/04/24 03:12:45;;;;;;;74.17;46.13;;;;;;;;;;4945776;29;20685;-77
2022/04/24 03:15:14;;;;;;;75.03;45.47;;;;;;;;;;4944363;28;20339;-76
2022/04/24 03:17:41;;;;;;;77.13;45.03;;;;;;;;;;4949127;29;20234;-77
2022/04/24 03:20:09;;;;;;;69.57;44.47;;;;;;;;;;4943960;29;20225;-76
2022/04/24 03:22:38;;;;;;;73.50;44.13;;;;;;;;;;4943293;29;20289;-76
2022/04/24 03:25:06;;;;;;;72.80;45.50;;;;;;;;;;4946730;28;20302;-77
2022/04/24 03:27:34;;;;;;;72.23;44.77;;;;;;;;;;4948340;29;20211;-76
2022/04/24 03:30:01;;;;;;;81.23;45.10;;;;;;;;;;4949811;28;20329;-77
2022/04/24 03:32:31;;;;;;;76.23;45.00;;;;;;;;;;4947264;29;20248;-76
2022/04/24 03:34:58;;;;;;;74.40;45.50;;;;;;;;;;4945800;28;20211;-76
2022/04/24 03:37:25;;;;;;;74.50;44.90;;;;;;;;;;4935295;29;20302;-77
2022/04/24 03:39:54;;;;;;;75.20;45.60;;;;;;;;;;4943331;29;20686;-76
2022/04/24 03:42:21;;;;;;;78.87;47.43;;;;;;;;;;4953088;29;20266;-76
2022/04/24 03:44:49;;;;;;;72.73;45.37;;;;;;;;;;4953876;29;20231;-76
2022/04/24 03:47:16;;;;;;;82.47;45.97;;;;;;;;;;4953798;28;20295;-76
2022/04/24 03:49:43;;;;;;;80.23;46.33;;;;;;;;;;4953572;29;20230;-76
2022/04/24 03:52:11;;;;;;;79.60;46.93;;;;;;;;;;4953013;29;20274;-77
2022/04/24 03:54:39;;;;;;;79.10;46.60;;;;;;;;;;4949101;29;20215;-76
2022/04/24 03:57:07;;;;;;;84.07;46.63;;;;;;;;;;4942756;29;20678;-77
2022/04/24 03:59:35;;;;;;;79.73;45.97;;;;;;;;;;4942320;29;20257;-76
2022/04/24 04:02:02;;;;;;;80.10;46.73;;;;;;;;;;4945562;29;20226;-76
2022/04/24 04:04:30;;;;;;;80.97;46.30;;;;;;;;;;4935101;28;20912;-76
2022/04/24 04:06:57;;;;;;;78.03;45.73;;;;;;;;;;4934572;29;20226;-77
2022/04/24 04:09:24;;;;;;;78.23;45.47;;;;;;;;;;4945840;28;20325;-76
2022/04/24 04:11:51;;;;;;;79.90;43.93;;;;;;;;;;4935100;29;20316;-76
2022/04/24 04:14:21;;;;;;;76.33;46.33;;;;;;;;;;4950965;29;20315;-76
2022/04/24 04:16:49;;;;;;;75.00;44.80;;;;;;;;;;4953064;29;20292;-76
2022/04/24 04:19:16;;;;;;;74.53;43.63;;;;;;;;;;4953658;29;20313;-76
2022/04/24 04:21:44;;;;;;;78.37;44.67;;;;;;;;;;4950731;28;20233;-76
2022/04/24 04:24:11;;;;;;;80.23;46.40;;;;;;;;;;4941658;29;20249;-77
2022/04/24 04:26:38;;;;;;;80.53;45.57;;;;;;;;;;4952891;29;20333;-76
2022/04/24 04:29:05;;;;;;;78.17;44.73;;;;;;;;;;4953452;29;20678;-76
2022/04/24 04:31:34;;;;;;;77.23;45.33;;;;;;;;;;4953095;29;20268;-76
2022/04/24 04:34:01;;;;;;;75.00;44.83;;;;;;;;;;4953092;29;20626;-77
2022/04/24 04:36:28;;;;;;;78.17;44.73;;;;;;;;;;4940424;28;20241;-76
2022/04/24 04:38:55;;;;;;;73.53;44.27;;;;;;;;;;4948415;28;20256;-76
2022/04/24 04:41:23;;;;;;;78.63;46.23;;;;;;;;;;4952740;29;20235;-76
2022/04/24 04:43:50;;;;;;;75.60;44.70;;;;;;;;;;4953107;29;20607;-77
2022/04/24 04:46:17;;;;;;;74.90;43.67;;;;;;;;;;4953415;29;20210;-76
2022/04/24 04:48:46;;;;;;;73.20;44.87;;;;;;;;;;4936892;29;20217;-76
2022/04/24 04:51:13;;;;;;;77.47;44.30;;;;;;;;;;4952827;29;20229;-76
2022/04/24 04:53:40;;;;;;;75.37;45.50;;;;;;;;;;4943828;29;20691;-76
2022/04/24 04:56:08;;;;;;;75.80;45.47;;;;;;;;;;4942159;29;20649;-76
2022/04/24 04:58:35;;;;;;;76.17;45.10;;;;;;;;;;4952173;28;20261;-76
2022/04/24 05:01:02;;;;;;;77.53;44.23;;;;;;;;;;4941660;29;20288;-76
2022/04/24 05:03:30;;;;;;;70.33;44.30;;;;;;;;;;4941364;29;20274;-77
2022/04/24 05:05:59;;;;;;;83.30;46.80;;;;;;;;;;4943700;29;20208;-76
2022/04/24 05:08:26;;;;;;;79.23;45.03;;;;;;;;;;4943796;29;20880;-76
2022/04/24 05:10:53;;;;;;;78.07;44.47;;;;;;;;;;4945055;29;20313;-77
2022/04/24 05:13:21;;;;;;;72.80;44.77;;;;;;;;;;4945052;29;20220;-77
2022/04/24 05:15:48;;;;;;;81.03;45.53;;;;;;;;;;4944684;29;20202;-76
2022/04/24 05:18:16;;;;;;;76.73;45.47;;;;;;;;;;4935883;29;20291;-76
2022/04/24 05:20:43;;;;;;;79.37;44.50;;;;;;;;;;4942058;29;20297;-76
2022/04/24 05:23:12;;;;;;;71.23;43.57;;;;;;;;;;4946102;29;20211;-77
2022/04/24 05:25:39;;;;;;;75.30;45.00;;;;;;;;;;4947191;28;20330;-76
2022/04/24 05:28:07;;;;;;;69.43;44.53;;;;;;;;;;4936567;29;20769;-77
2022/04/24 05:30:35;;;;;;;75.00;43.80;;;;;;;;;;4952967;28;20256;-77
2022/04/24 05:33:02;;;;;;;75.97;44.93;;;;;;;;;;4953370;28;20293;-76
2022/04/24 05:35:29;;;;;;;73.37;43.97;;;;;;;;;;4951992;29;20289;-77
2022/04/24 05:37:57;;;;;;;75.13;43.33;;;;;;;;;;4952592;29;20811;-77
2022/04/24 05:40:25;;;;;;;79.53;46.13;;;;;;;;;;4938566;28;20286;-77
2022/04/24 05:42:54;;;;;;;79.17;44.67;;;;;;;;;;4938448;29;20241;-77
2022/04/24 05:45:22;;;;;;;76.50;45.07;;;;;;;;;;4936214;29;20294;-76
2022/04/24 05:47:49;;;;;;;73.83;43.47;;;;;;;;;;4947002;29;20210;-76
2022/04/24 05:50:17;;;;;;;73.13;42.97;;;;;;;;;;4943564;29;20203;-78
2022/04/24 05:52:44;;;;;;;69.17;42.83;;;;;;;;;;4941315;29;20899;-76
2022/04/24 05:55:12;;;;;;;72.60;43.10;;;;;;;;;;4952933;29;20235;-77
2022/04/24 05:57:41;;;;;;;75.30;42.50;;;;;;;;;;4939104;29;20210;-77
2022/04/24 06:00:09;;;;;;;67.33;41.33;;;;;;;;;;4956367;28;20294;-77
2022/04/24 06:02:36;;;;;;;69.77;42.13;;;;;;;;;;4955628;29;20257;-77
2022/04/24 06:05:04;;;;;;;62.30;41.37;;;;;;;;;;4949494;29;20212;-77
2022/04/24 06:07:31;;;;;;;72.27;41.53;;;;;;;;;;4947327;28;20241;-77
2022/04/24 06:09:58;;;;;;;64.37;41.83;;;;;;;;;;4956453;29;20294;-76
2022/04/24 06:12:25;;;;;;;66.43;41.30;;;;;;;;;;4954445;28;20223;-77
2022/04/24 06:14:54;;;;;;;64.43;40.90;;;;;;;;;;4955666;28;20255;-77
2022/04/24 06:17:21;;;;;;;69.23;40.27;;;;;;;;;;4955410;29;20202;-77
2022/04/24 06:19:48;;;;;;;63.10;40.30;;;;;;;;;;4955266;29;20580;-77
2022/04/24 06:22:16;;;;;;;61.70;39.83;;;;;;;;;;4949279;29;20678;-77
2022/04/24 06:24:43;;;;;;;60.13;39.33;;;;;;;;;;4941225;29;20328;-76
2022/04/24 06:27:10;;;;;;;58.13;38.83;;;;;;;;;;4950110;29;20640;-77
2022/04/24 06:29:37;;;;;;;58.37;38.03;;;;;;;;;;4955139;29;20794;-77
2022/04/24 06:32:06;;;;;;;61.10;37.83;;;;;;;;;;4955034;28;20310;-77
2022/04/24 06:34:34;;;;;;;61.43;37.93;;;;;;;;;;4939144;29;20208;-77
2022/04/24 06:37:01;;;;;;;59.67;40.67;;;;;;;;;;4948084;29;20618;-76
2022/04/24 06:39:28;;;;;;;57.40;39.03;;;;;;;;;;4952583;29;20207;-77
2022/04/24 06:41:55;;;;;;;51.93;36.83;;;;;;;;;;4955097;29;20254;-77
2022/04/24 06:44:24;;;;;;;60.87;38.73;;;;;;;;;;4947361;29;20630;-76
2022/04/24 06:46:51;;;;;;;53.53;37.13;;;;;;;;;;4952352;29;20353;-76
2022/04/24 06:49:20;;;;;;;53.60;36.50;;;;;;;;;;4950580;29;20211;-77
2022/04/24 06:51:47;;;;;;;53.50;37.40;;;;;;;;;;4955179;29;20373;-77
2022/04/24 06:54:14;;;;;;;51.97;36.27;;;;;;;;;;4955412;29;20231;-76
2022/04/24 06:56:41;;;;;;;50.43;35.97;;;;;;;;;;4954424;29;20199;-77
2022/04/24 06:59:08;;;;;;;46.37;33.20;;;;;;;;;;4951127;29;20212;-77
2022/04/24 07:01:36;;;;;;;43.40;32.83;;;;;;;;;;4943452;28;20235;-77
2022/04/24 07:04:03;;;;;;;45.63;33.40;;;;;;;;;;4936649;29;20239;-77
2022/04/24 07:06:31;;;;;;;43.10;31.50;;;;;;;;;;4936429;29;20263;-77
2022/04/24 07:08:59;;;;;;;44.60;32.00;;;;;;;;;;4938288;29;20262;-76
2022/04/24 07:11:26;;;;;;;39.33;29.73;;;;;;;;;;4937527;29;20718;-77
2022/04/24 07:13:53;;;;;;;40.97;29.23;;;;;;;;;;4945935;29;20239;-77
2022/04/24 07:16:20;;;;;;;38.53;29.00;;;;;;;;;;4944531;28;20235;-78
2022/04/24 07:18:47;;;;;;;38.00;29.00;;;;;;;;;;4942980;28;20231;-76
2022/04/24 07:21:15;;;;;;;39.03;28.07;;;;;;;;;;4943550;29;20206;-74
2022/04/24 07:23:43;;;;;;;38.10;27.13;;;;;;;;;;4949538;29;20207;-76
2022/04/24 07:26:10;;;;;;;34.23;26.07;;;;;;;;;;4939851;29;20231;-76
2022/04/24 07:28:37;;;;;;;32.83;26.27;;;;;;;;;;4948129;28;20282;-76
2022/04/24 07:31:06;;;;;;;33.50;26.60;;;;;;;;;;4947888;28;20238;-76
2022/04/24 07:33:33;;;;;;;33.83;27.87;;;;;;;;;;4944752;29;20633;-76
2022/04/24 07:36:01;;;;;;;35.33;26.27;;;;;;;;;;4942874;29;20686;-76
2022/04/24 07:38:28;;;;;;;33.03;25.90;;;;;;;;;;4950816;29;20207;-76
2022/04/24 07:40:56;;;;;;;31.97;24.77;;;;;;;;;;4951563;28;20289;-76
2022/04/24 07:43:23;;;;;;;35.83;26.53;;;;;;;;;;4947986;29;20203;-76
2022/04/24 07:45:51;;;;;;;32.27;24.03;;;;;;;;;;4953750;29;20265;-76
2022/04/24 07:48:18;;;;;;;28.77;23.57;;;;;;;;;;4947028;29;20294;-77
2022/04/24 07:50:46;;;;;;;30.40;23.77;;;;;;;;;;4950164;29;20203;-77
2022/04/24 07:53:14;;;;;;;29.80;23.87;;;;;;;;;;4952473;29;20219;-76
2022/04/24 07:55:41;;;;;;;31.93;24.20;;;;;;;;;;4949484;29;20246;-76
2022/04/24 07:58:10;;;;;;;31.20;22.97;;;;;;;;;;4951275;29;20243;-76
2022/04/24 08:00:38;;;;;;;32.37;23.23;;;;;;;;;;4945532;29;20257;-77
2022/04/24 08:03:06;;;;;;;28.47;23.37;;;;;;;;;;4949060;28;20293;-75
2022/04/24 08:05:34;;;;;;;33.20;24.37;;;;;;;;;;4947825;28;20203;-77
2022/04/24 08:08:03;;;;;;;30.60;23.90;;;;;;;;;;4947117;28;20259;-76
2022/04/24 08:10:31;;;;;;;28.87;23.27;;;;;;;;;;4940348;29;20292;-77
2022/04/24 08:12:58;;;;;;;28.50;23.03;;;;;;;;;;4943144;29;20738;-77
2022/04/24 08:15:28;;;;;;;29.73;22.65;;;;;;;;;;4947220;28;20245;-77
2022/04/24 08:17:55;;;;;;;27.70;21.88;;;;;;;;;;4942357;29;20203;-77
2022/04/24 08:20:22;;;;;;;27.02;21.00;;;;;;;;;;4949741;29;20210;-78
2022/04/24 08:22:50;;;;;;;27.92;21.55;;;;;;;;;;4947144;29;20251;-77
2022/04/24 08:25:18;;;;;;;24.90;20.80;;;;;;;;;;4949821;29;20627;-76
2022/04/24 08:27:46;;;;;;;30.05;21.90;;;;;;;;;;4942145;29;20204;-77
2022/04/24 08:30:14;;;;;;;25.58;19.27;;;;;;;;;;4944084;28;20282;-77
2022/04/24 08:32:43;;;;;;;25.25;19.92;;;;;;;;;;4950798;29;20225;-77
2022/04/24 08:35:11;;;;;;;21.73;18.50;;;;;;;;;;4945015;29;20582;-77
2022/04/24 08:37:38;;;;;;;25.00;20.08;;;;;;;;;;4946463;29;20294;-77
2022/04/24 08:40:06;;;;;;;24.58;20.30;;;;;;;;;;4948770;29;20207;-77
2022/04/24 08:42:34;;;;;;;27.45;20.38;;;;;;;;;;4944458;29;20227;-77
2022/04/24 08:45:02;;;;;;;25.02;21.23;;;;;;;;;;4948512;28;20291;-77
2022/04/24 08:47:29;;;;;;;29.10;22.25;;;;;;;;;;4949150;29;20294;-78
2022/04/24 08:49:59;;;;;;;26.65;20.73;;;;;;;;;;4949016;29;20298;-78
2022/04/24 08:52:27;;;;;;;25.27;21.80;;;;;;;;;;4941247;29;20251;-77
2022/04/24 08:54:55;;;;;;;23.13;19.60;;;;;;;;;;4947723;29;20203;-79
2022/04/24 08:57:26;;;;;;;27.40;19.92;;;;;;;;;;4945376;29;20207;-79
2022/04/24 08:59:53;;;;;;;24.77;19.05;;;;;;;;;;4945620;29;20206;-78
2022/04/24 09:02:21;;;;;;;23.70;20.02;;;;;;;;;;4945068;29;20213;-79
2022/04/24 09:04:48;;;;;;;22.13;18.65;;;;;;;;;;4949512;29;20227;-78
2022/04/24 09:07:18;;;;;;;21.40;18.45;;;;;;;;;;4952013;28;20257;-78
2022/04/24 09:09:46;;;;;;;22.60;17.90;;;;;;;;;;4945901;28;20199;-77
2022/04/24 09:12:14;;;;;;;24.98;17.95;;;;;;;;;;4954829;28;20227;-78
2022/04/24 09:14:41;;;;;;;25.55;18.45;;;;;;;;;;4955420;28;20211;-78
2022/04/24 09:17:16;;;;;;;24.83;19.65;;;;;;;;;;4946858;29;20290;-75
2022/04/24 09:19:44;;;;;;;24.55;19.63;;;;;;;;;;4952620;28;20277;-76
2022/04/24 09:22:12;;;;;;;24.63;18.48;;;;;;;;;;4951833;28;20267;-77
2022/04/24 09:24:41;;;;;;;20.63;17.38;;;;;;;;;;4945805;28;20211;-76
2022/04/24 09:27:09;;;;;;;22.40;18.27;;;;;;;;;;4948824;28;20201;-77
2022/04/24 09:29:36;;;;;;;23.02;19.25;;;;;;;;;;4956422;28;20210;-77
2022/04/24 09:34:54;;;;;;;23.15;19.23;;;;;;;;;;4952856;28;20555;-79
2022/04/24 09:37:21;;;;;;;23.73;18.92;;;;;;;;;;4954236;28;20213;-78
2022/04/24 09:39:50;;;;;;;23.27;19.38;;;;;;;;;;4953997;28;20259;-77
2022/04/24 09:42:18;;;;;;;23.90;18.65;;;;;;;;;;4954177;28;20206;-77
2022/04/24 09:44:47;;;;;;;24.50;19.67;;;;;;;;;;4959063;28;20234;-76
2022/04/24 09:47:14;;;;;;;26.48;21.13;;;;;;;;;;4960437;28;20219;-78
2022/04/24 09:49:45;;;;;;;23.88;19.83;;;;;;;;;;4955693;29;20231;-78
2022/04/24 09:52:15;;;;;;;27.67;21.65;;;;;;;;;;4950646;28;20226;-78
2022/04/24 09:54:44;;;;;;;26.27;20.90;;;;;;;;;;4950602;28;20258;-79
2022/04/24 09:57:14;;;;;;;27.13;21.00;;;;;;;;;;4953654;28;20207;-77
2022/04/24 09:59:43;;;;;;;26.23;21.33;;;;;;;;;;4953488;28;20738;-77
2022/04/24 10:02:14;;;;;;;25.80;20.10;;;;;;;;;;4945752;29;20223;-78
2022/04/24 10:04:42;;;;;;;23.40;18.88;;;;;;;;;;4949770;28;20759;-77
2022/04/24 10:07:11;;;;;;;24.13;18.30;;;;;;;;;;4951934;28;20547;-78
2022/04/24 10:09:39;;;;;;;24.30;18.23;;;;;;;;;;4954711;28;20286;-77
2022/04/24 10:12:07;;;;;;;22.98;19.52;;;;;;;;;;4946875;28;20231;-78
2022/04/24 10:14:39;;;;;;;21.30;17.63;;;;;;;;;;4948894;28;20203;-76
2022/04/24 10:17:27;;;;;;;22.60;17.75;;;;;;;;;;4948924;29;20302;-76
2022/04/24 10:20:01;;;;;;;20.73;17.08;;;;;;;;;;4943083;29;20286;-78
2022/04/24 10:22:35;;;;;;;21.17;17.00;;;;;;;;;;4948887;28;20198;-83
2022/04/24 10:25:03;;;;;;;19.10;17.00;;;;;;;;;;4951717;28;20207;-85
2022/04/24 10:27:37;;;;;;;20.00;17.90;;;;;;;;;;4950668;28;20227;-85
2022/04/24 10:30:06;;;;;;;19.83;17.70;;;;;;;;;;4948097;29;20749;-84
2022/04/24 10:32:34;;;;;;;21.48;18.27;;;;;;;;;;4950077;28;20326;-85
2022/04/24 10:35:01;;;;;;;19.88;17.77;;;;;;;;;;4952074;28;20289;-85
2022/04/24 10:37:30;;;;;;;20.00;17.23;;;;;;;;;;4951044;28;20254;-85
2022/04/24 10:39:58;;;;;;;20.83;17.70;;;;;;;;;;4947199;28;20247;-85
2022/04/24 10:42:37;;;;;;;19.25;17.27;;;;;;;;;;4948677;28;20783;-85
2022/04/24 10:45:08;;;;;;;19.00;17.02;;;;;;;;;;4952509;28;20207;-84
2022/04/24 10:47:46;;;;;;;18.65;16.02;;;;;;;;;;4950357;28;20625;-84
2022/04/24 10:50:14;;;;;;;18.67;15.63;;;;;;;;;;4954113;28;20202;-85
2022/04/24 10:52:43;;;;;;;17.38;15.60;;;;;;;;;;4950789;28;20227;-87
2022/04/24 10:55:11;;;;;;;17.55;14.18;;;;;;;;;;4947749;28;20867;-84
2022/04/24 10:57:42;;;;;;;14.98;13.43;;;;;;;;;;4952447;28;20246;-85
2022/04/24 11:00:22;;;;;;;16.13;13.18;;;;;;;;;;4952013;28;20338;-85
2022/04/24 11:02:50;;;;;;;16.45;14.00;;;;;;;;;;4951613;28;20207;-84
2022/04/24 11:05:20;;;;;;;15.48;13.95;;;;;;;;;;4951633;29;20686;-84
2022/04/24 11:07:47;;;;;;;16.10;14.50;;;;;;;;;;4947487;28;20246;-85
2022/04/24 11:10:17;;;;;;;18.77;16.65;;;;;;;;;;4936129;29;20218;-85
2022/04/24 11:12:46;;;;;;;17.10;14.77;;;;;;;;;;4936211;29;20279;-85
2022/04/24 11:15:14;;;;;;;15.40;13.77;;;;;;;;;;4954524;28;20286;-86
2022/04/24 11:17:43;;;;;;;17.00;15.20;;;;;;;;;;4947435;29;20687;-84
2022/04/24 11:20:11;;;;;;;15.52;13.75;;;;;;;;;;4945256;29;20203;-87
2022/04/24 11:22:48;;;;;;;17.17;14.73;;;;;;;;;;4955036;29;20207;-87
2022/04/24 11:25:16;;;;;;;17.70;14.50;;;;;;;;;;4924955;29;20207;-86
2022/04/24 11:27:44;;;;;;;13.85;12.45;;;;;;;;;;4947089;29;20572;-85
2022/04/24 11:30:17;;;;;;;14.57;13.18;;;;;;;;;;4936689;29;20208;-85
2022/04/24 11:32:57;;;;;;;15.25;13.75;;;;;;;;;;4939794;29;20262;-84
2022/04/24 11:35:25;;;;;;;15.32;13.75;;;;;;;;;;4944491;28;20259;-85
2022/04/24 11:37:53;;;;;;;14.80;13.23;;;;;;;;;;4950454;29;20628;-85
2022/04/24 11:40:21;;;;;;;15.25;13.73;;;;;;;;;;4949372;29;20219;-83
2022/04/24 11:42:48;;;;;;;14.52;13.02;;;;;;;;;;4943026;29;20286;-85
2022/04/24 11:50:51;;;;;;;13.95;12.50;;;;;;;;;;4945245;29;20681;-84
2022/04/24 11:53:20;;;;;;;15.25;13.55;;;;;;;;;;4949605;29;20793;-84
2022/04/24 11:56:02;;;;;;;14.15;12.63;;;;;;;;;;4943138;29;20620;-84
2022/04/24 11:58:33;;;;;;;14.50;13.10;;;;;;;;;;4940628;29;20242;-84
2022/04/24 12:01:02;;;;;;;14.25;12.75;;;;;;;;;;4928308;29;20207;-80
2022/04/24 12:03:32;;;;;;;15.48;13.98;;;;;;;;;;4949944;29;20250;-82
2022/04/24 12:06:00;;;;;;;14.25;12.77;;;;;;;;;;4949798;28;20209;-84
2022/04/24 12:08:27;;;;;;;14.02;12.52;;;;;;;;;;4952304;28;20718;-85
2022/04/24 12:10:55;;;;;;;14.48;12.98;;;;;;;;;;4942178;29;20227;-84
2022/04/24 12:13:23;;;;;;;12.57;11.38;;;;;;;;;;4952318;29;20314;-84
2022/04/24 12:15:51;;;;;;;13.60;12.23;;;;;;;;;;4948427;28;20285;-85
2022/04/24 12:18:21;;;;;;;12.75;11.48;;;;;;;;;;4943297;29;20238;-84
2022/04/24 12:20:50;;;;;;;13.25;11.93;;;;;;;;;;4946028;29;20667;-84
2022/04/24 12:23:18;;;;;;;15.30;12.65;;;;;;;;;;4943140;29;20691;-85
2022/04/24 12:25:50;;;;;;;13.32;11.93;;;;;;;;;;4943488;29;20207;-85
2022/04/24 12:28:29;;;;;;;12.65;11.32;;;;;;;;;;4950062;29;20735;-84
2022/04/24 12:30:57;;;;;;;12.50;11.27;;;;;;;;;;4945554;29;20199;-84
2022/04/24 12:33:25;;;;;;;11.82;10.75;;;;;;;;;;4941325;29;20282;-83
2022/04/24 12:35:55;;;;;;;13.27;11.05;;;;;;;;;;4947743;29;20386;-85
2022/04/24 12:38:23;;;;;;;11.25;10.25;;;;;;;;;;4935270;29;20643;-85
2022/04/24 12:40:57;;;;;;;12.75;11.57;;;;;;;;;;4949940;29;20211;-84
2022/04/24 12:43:26;;;;;;;12.70;11.50;;;;;;;;;;4951770;29;20281;-85
2022/04/24 12:45:55;;;;;;;12.00;10.82;;;;;;;;;;4949805;29;20251;-84
2022/04/24 12:48:23;;;;;;;13.45;11.50;;;;;;;;;;4952258;28;20822;-84
2022/04/24 12:50:51;;;;;;;16.48;12.50;;;;;;;;;;4941706;28;20210;-84
2022/04/24 12:53:20;;;;;;;14.98;12.50;;;;;;;;;;4947682;29;20313;-84
2022/04/24 12:55:49;;;;;;;14.15;12.75;;;;;;;;;;4944397;29;20203;-84
2022/04/24 12:58:16;;;;;;;15.85;13.40;;;;;;;;;;4942206;28;20259;-84
2022/04/24 13:00:43;;;;;;;15.38;13.77;;;;;;;;;;4946767;29;20286;-84
2022/04/24 13:03:12;;;;;;;14.95;13.35;;;;;;;;;;4940724;29;20226;-84
2022/04/24 13:05:39;;;;;;;15.80;14.15;;;;;;;;;;4945265;29;20199;-84
2022/04/24 13:08:08;;;;;;;15.63;13.80;;;;;;;;;;4958922;28;20270;-83
2022/04/24 13:10:36;;;;;;;17.63;14.30;;;;;;;;;;4955716;29;20234;-85
2022/04/24 13:13:04;;;;;;;15.13;13.55;;;;;;;;;;4955833;28;20199;-86
2022/04/24 13:15:33;;;;;;;15.68;13.98;;;;;;;;;;4948049;29;20199;-85
2022/04/24 13:18:11;;;;;;;16.20;12.77;;;;;;;;;;4946534;29;20262;-86
2022/04/24 13:20:40;;;;;;;15.82;13.35;;;;;;;;;;4953390;28;20209;-87
2022/04/24 13:23:08;;;;;;;17.42;13.95;;;;;;;;;;4952107;29;20207;-84
2022/04/24 13:25:37;;;;;;;14.38;12.90;;;;;;;;;;4953027;29;21426;-86
2022/04/24 13:28:05;;;;;;;14.25;12.57;;;;;;;;;;4950633;28;20278;-84
2022/04/24 13:30:33;;;;;;;16.73;13.70;;;;;;;;;;4949494;28;20270;-84
2022/04/24 13:33:00;;;;;;;17.10;14.23;;;;;;;;;;4943038;29;20204;-85
2022/04/24 13:35:43;;;;;;;15.77;13.93;;;;;;;;;;4944865;29;20203;-84
2022/04/24 13:38:19;;;;;;;16.20;13.80;;;;;;;;;;4953318;28;20207;-82
2022/04/24 13:40:49;;;;;;;13.95;12.50;;;;;;;;;;4953700;28;20211;-83
2022/04/24 13:43:16;;;;;;;13.43;12.02;;;;;;;;;;4949313;29;20199;-83
2022/04/24 13:45:44;;;;;;;14.25;12.85;;;;;;;;;;4947198;28;20695;-83
2022/04/24 13:48:11;;;;;;;14.15;12.75;;;;;;;;;;4954553;28;20314;-83
2022/04/24 13:50:39;;;;;;;14.85;13.25;;;;;;;;;;4946946;28;20199;-83
2022/04/24 13:53:07;;;;;;;13.70;12.07;;;;;;;;;;4952511;29;20634;-83
2022/04/24 13:55:35;;;;;;;15.07;13.35;;;;;;;;;;4947863;29;20657;-83
2022/04/24 13:58:04;;;;;;;14.63;12.93;;;;;;;;;;4951336;29;20240;-83
2022/04/24 14:00:32;;;;;;;14.38;12.80;;;;;;;;;;4950429;29;20287;-82
2022/04/24 14:03:00;;;;;;;15.23;13.18;;;;;;;;;;4948423;29;20318;-75
2022/04/24 14:05:27;;;;;;;15.93;14.32;;;;;;;;;;4938236;29;20207;-75
2022/04/24 14:07:54;;;;;;;15.02;13.13;;;;;;;;;;4951188;28;20313;-75
2022/04/24 14:10:22;;;;;;;15.52;13.88;;;;;;;;;;4948865;28;20240;-75
2022/04/24 14:12:49;;;;;;;16.08;13.80;;;;;;;;;;4955023;28;20290;-83
2022/04/24 14:15:22;;;;;;;17.85;14.20;;;;;;;;;;4946637;28;20439;-83
2022/04/24 14:17:50;;;;;;;15.20;13.60;;;;;;;;;;4946899;29;20199;-83
2022/04/24 14:20:17;;;;;;;16.75;14.02;;;;;;;;;;4946320;29;20678;-86
2022/04/24 14:22:45;;;;;;;15.73;14.02;;;;;;;;;;4942982;29;20204;-83
2022/04/24 14:25:12;;;;;;;17.52;14.75;;;;;;;;;;4945494;29;20238;-84
2022/04/24 14:27:39;;;;;;;16.67;14.57;;;;;;;;;;4939782;28;20652;-83
2022/04/24 14:30:10;;;;;;;16.02;14.02;;;;;;;;;;4952909;29;20262;-82